sensor_id;sensor_type;location;lat;lon;timestamp;P1;durP1;ratioP1;P2;durP2;ratioP2
55216;SDS011;41086;46.736;15.666;2023-08-21T00:02:00;29.38;;;19.30;;
55216;SDS011;41086;46.736;15.666;2023-08-21T00:04:27;21.05;;;17.63;;
55216;SDS011;41086;46.736;15.666;2023-08-21T00:06:54;23.92;;;20.00;;
55216;SDS011;41086;46.736;15.666;2023-08-21T00:09:21;27.58;;;19.35;;
55216;SDS011;41086;46.736;15.666;2023-08-21T00:11:48;24.17;;;18.65;;
55216;SDS011;41086;46.736;15.666;2023-08-21T00:16:41;25.33;;;20.10;;
55216;SDS011;41086;46.736;15.666;2023-08-21T00:21:34;26.90;;;19.42;;
55216;SDS011;41086;46.736;15.666;2023-08-21T00:24:01;23.27;;;19.33;;
55216;SDS011;41086;46.736;15.666;2023-08-21T00:26:28;27.13;;;20.60;;
55216;SDS011;41086;46.736;15.666;2023-08-21T00:28:55;26.20;;;19.80;;
55216;SDS011;41086;46.736;15.666;2023-08-21T00:31:21;26.73;;;20.58;;
55216;SDS011;41086;46.736;15.666;2023-08-21T00:33:48;24.95;;;20.77;;
55216;SDS011;41086;46.736;15.666;2023-08-21T00:38:42;26.48;;;19.23;;
55216;SDS011;41086;46.736;15.666;2023-08-21T00:41:09;25.25;;;18.98;;
55216;SDS011;41086;46.736;15.666;2023-08-21T00:43:36;21.55;;;19.00;;
55216;SDS011;41086;46.736;15.666;2023-08-21T00:46:03;23.15;;;19.27;;
55216;SDS011;41086;46.736;15.666;2023-08-21T00:48:30;23.73;;;19.50;;
55216;SDS011;41086;46.736;15.666;2023-08-21T00:50:59;22.88;;;19.15;;
55216;SDS011;41086;46.736;15.666;2023-08-21T00:55:53;30.88;;;19.73;;
55216;SDS011;41086;46.736;15.666;2023-08-21T00:58:20;28.60;;;20.23;;
55216;SDS011;41086;46.736;15.666;2023-08-21T01:03:16;26.48;;;19.55;;
55216;SDS011;41086;46.736;15.666;2023-08-21T01:08:11;29.60;;;19.17;;
55216;SDS011;41086;46.736;15.666;2023-08-21T01:10:50;27.63;;;20.00;;
55216;SDS011;41086;46.736;15.666;2023-08-21T01:16:10;36.47;;;20.63;;
55216;SDS011;41086;46.736;15.666;2023-08-21T01:18:40;24.27;;;19.33;;
55216;SDS011;41086;46.736;15.666;2023-08-21T01:21:08;30.58;;;18.98;;
55216;SDS011;41086;46.736;15.666;2023-08-21T01:26:02;23.47;;;17.37;;
55216;SDS011;41086;46.736;15.666;2023-08-21T01:28:31;28.05;;;19.13;;
55216;SDS011;41086;46.736;15.666;2023-08-21T01:31:00;23.73;;;17.50;;
55216;SDS011;41086;46.736;15.666;2023-08-21T01:33:33;34.13;;;19.73;;
55216;SDS011;41086;46.736;15.666;2023-08-21T01:36:02;29.33;;;21.05;;
55216;SDS011;41086;46.736;15.666;2023-08-21T01:38:33;30.05;;;21.70;;
55216;SDS011;41086;46.736;15.666;2023-08-21T01:41:00;28.52;;;21.00;;
55216;SDS011;41086;46.736;15.666;2023-08-21T01:43:26;32.88;;;22.27;;
55216;SDS011;41086;46.736;15.666;2023-08-21T01:45:53;32.22;;;22.85;;
55216;SDS011;41086;46.736;15.666;2023-08-21T01:48:21;32.03;;;23.67;;
55216;SDS011;41086;46.736;15.666;2023-08-21T01:50:48;30.05;;;21.55;;
55216;SDS011;41086;46.736;15.666;2023-08-21T01:53:15;35.05;;;21.98;;
55216;SDS011;41086;46.736;15.666;2023-08-21T01:55:43;31.27;;;22.35;;
55216;SDS011;41086;46.736;15.666;2023-08-21T01:58:10;30.40;;;21.45;;
55216;SDS011;41086;46.736;15.666;2023-08-21T02:00:37;28.17;;;21.50;;
55216;SDS011;41086;46.736;15.666;2023-08-21T02:03:04;29.02;;;22.60;;
55216;SDS011;41086;46.736;15.666;2023-08-21T02:05:36;26.13;;;19.58;;
55216;SDS011;41086;46.736;15.666;2023-08-21T02:08:04;29.55;;;21.33;;
55216;SDS011;41086;46.736;15.666;2023-08-21T02:10:34;26.05;;;21.05;;
55216;SDS011;41086;46.736;15.666;2023-08-21T02:15:27;28.90;;;19.27;;
55216;SDS011;41086;46.736;15.666;2023-08-21T02:17:54;30.98;;;21.25;;
55216;SDS011;41086;46.736;15.666;2023-08-21T02:22:48;30.08;;;21.25;;
55216;SDS011;41086;46.736;15.666;2023-08-21T02:25:14;34.00;;;23.02;;
55216;SDS011;41086;46.736;15.666;2023-08-21T02:27:41;31.92;;;23.48;;
55216;SDS011;41086;46.736;15.666;2023-08-21T02:30:09;28.40;;;22.50;;
55216;SDS011;41086;46.736;15.666;2023-08-21T02:32:36;41.47;;;24.65;;
55216;SDS011;41086;46.736;15.666;2023-08-21T02:35:05;30.83;;;22.33;;
55216;SDS011;41086;46.736;15.666;2023-08-21T02:37:33;37.05;;;23.67;;
55216;SDS011;41086;46.736;15.666;2023-08-21T02:40:00;32.55;;;23.35;;
55216;SDS011;41086;46.736;15.666;2023-08-21T02:42:27;32.55;;;22.40;;
55216;SDS011;41086;46.736;15.666;2023-08-21T02:44:54;32.70;;;22.85;;
55216;SDS011;41086;46.736;15.666;2023-08-21T02:47:21;29.35;;;21.20;;
55216;SDS011;41086;46.736;15.666;2023-08-21T02:49:47;29.52;;;22.20;;
55216;SDS011;41086;46.736;15.666;2023-08-21T02:52:14;29.63;;;22.73;;
55216;SDS011;41086;46.736;15.666;2023-08-21T02:54:41;39.75;;;22.85;;
55216;SDS011;41086;46.736;15.666;2023-08-21T02:57:08;27.52;;;20.50;;
55216;SDS011;41086;46.736;15.666;2023-08-21T03:02:01;30.90;;;19.85;;
55216;SDS011;41086;46.736;15.666;2023-08-21T03:04:28;29.83;;;20.35;;
55216;SDS011;41086;46.736;15.666;2023-08-21T03:06:55;28.88;;;20.77;;
55216;SDS011;41086;46.736;15.666;2023-08-21T03:09:22;33.42;;;21.25;;
55216;SDS011;41086;46.736;15.666;2023-08-21T03:11:49;29.02;;;21.60;;
55216;SDS011;41086;46.736;15.666;2023-08-21T03:14:16;34.15;;;21.75;;
55216;SDS011;41086;46.736;15.666;2023-08-21T03:19:09;27.27;;;21.02;;
55216;SDS011;41086;46.736;15.666;2023-08-21T03:21:36;30.25;;;20.88;;
55216;SDS011;41086;46.736;15.666;2023-08-21T03:26:31;27.85;;;19.63;;
55216;SDS011;41086;46.736;15.666;2023-08-21T03:31:24;26.50;;;19.38;;
55216;SDS011;41086;46.736;15.666;2023-08-21T03:33:52;25.88;;;20.15;;
55216;SDS011;41086;46.736;15.666;2023-08-21T03:36:21;29.65;;;20.08;;
55216;SDS011;41086;46.736;15.666;2023-08-21T03:38:50;33.80;;;22.42;;
55216;SDS011;41086;46.736;15.666;2023-08-21T03:41:18;34.33;;;21.70;;
55216;SDS011;41086;46.736;15.666;2023-08-21T03:43:45;26.85;;;19.58;;
55216;SDS011;41086;46.736;15.666;2023-08-21T03:46:11;32.00;;;20.67;;
55216;SDS011;41086;46.736;15.666;2023-08-21T03:48:38;29.60;;;20.65;;
55216;SDS011;41086;46.736;15.666;2023-08-21T03:51:05;28.92;;;21.10;;
55216;SDS011;41086;46.736;15.666;2023-08-21T03:53:32;30.13;;;20.60;;
55216;SDS011;41086;46.736;15.666;2023-08-21T03:55:59;39.17;;;19.73;;
55216;SDS011;41086;46.736;15.666;2023-08-21T03:58:26;24.42;;;19.98;;
55216;SDS011;41086;46.736;15.666;2023-08-21T04:00:53;33.28;;;22.67;;
55216;SDS011;41086;46.736;15.666;2023-08-21T04:03:20;28.15;;;21.50;;
55216;SDS011;41086;46.736;15.666;2023-08-21T04:05:47;29.13;;;22.88;;
55216;SDS011;41086;46.736;15.666;2023-08-21T04:08:16;31.42;;;23.35;;
55216;SDS011;41086;46.736;15.666;2023-08-21T04:10:42;27.35;;;21.75;;
55216;SDS011;41086;46.736;15.666;2023-08-21T04:13:09;28.27;;;21.60;;
55216;SDS011;41086;46.736;15.666;2023-08-21T04:18:04;37.35;;;22.83;;
55216;SDS011;41086;46.736;15.666;2023-08-21T04:20:31;27.95;;;21.08;;
55216;SDS011;41086;46.736;15.666;2023-08-21T04:22:59;31.85;;;21.20;;
55216;SDS011;41086;46.736;15.666;2023-08-21T04:25:25;32.50;;;19.70;;
55216;SDS011;41086;46.736;15.666;2023-08-21T04:30:20;25.80;;;19.00;;
55216;SDS011;41086;46.736;15.666;2023-08-21T04:35:14;28.17;;;21.02;;
55216;SDS011;41086;46.736;15.666;2023-08-21T04:37:43;28.98;;;22.80;;
55216;SDS011;41086;46.736;15.666;2023-08-21T04:40:13;30.00;;;23.33;;
55216;SDS011;41086;46.736;15.666;2023-08-21T04:42:41;32.42;;;23.90;;
55216;SDS011;41086;46.736;15.666;2023-08-21T04:45:08;29.50;;;23.38;;
55216;SDS011;41086;46.736;15.666;2023-08-21T04:47:37;30.63;;;20.88;;
55216;SDS011;41086;46.736;15.666;2023-08-21T04:50:04;27.02;;;21.08;;
55216;SDS011;41086;46.736;15.666;2023-08-21T04:52:32;25.98;;;20.83;;
55216;SDS011;41086;46.736;15.666;2023-08-21T04:54:59;27.83;;;22.92;;
55216;SDS011;41086;46.736;15.666;2023-08-21T04:57:27;25.35;;;18.85;;
55216;SDS011;41086;46.736;15.666;2023-08-21T04:59:56;26.23;;;20.05;;
55216;SDS011;41086;46.736;15.666;2023-08-21T05:02:25;24.80;;;20.38;;
55216;SDS011;41086;46.736;15.666;2023-08-21T05:07:19;26.45;;;19.17;;
55216;SDS011;41086;46.736;15.666;2023-08-21T05:09:46;25.48;;;20.38;;
55216;SDS011;41086;46.736;15.666;2023-08-21T05:12:13;27.13;;;21.55;;
55216;SDS011;41086;46.736;15.666;2023-08-21T05:17:07;23.35;;;18.95;;
55216;SDS011;41086;46.736;15.666;2023-08-21T05:19:35;32.03;;;22.30;;
55216;SDS011;41086;46.736;15.666;2023-08-21T05:22:02;27.10;;;19.98;;
55216;SDS011;41086;46.736;15.666;2023-08-21T05:24:30;29.02;;;20.75;;
55216;SDS011;41086;46.736;15.666;2023-08-21T05:27:02;32.53;;;22.15;;
55216;SDS011;41086;46.736;15.666;2023-08-21T05:29:31;29.92;;;21.13;;
55216;SDS011;41086;46.736;15.666;2023-08-21T05:31:58;26.98;;;20.70;;
55216;SDS011;41086;46.736;15.666;2023-08-21T05:34:24;24.20;;;19.25;;
55216;SDS011;41086;46.736;15.666;2023-08-21T05:36:52;23.95;;;18.48;;
55216;SDS011;41086;46.736;15.666;2023-08-21T05:39:21;24.17;;;17.90;;
55216;SDS011;41086;46.736;15.666;2023-08-21T05:41:49;38.17;;;19.35;;
55216;SDS011;41086;46.736;15.666;2023-08-21T05:44:15;26.05;;;20.33;;
55216;SDS011;41086;46.736;15.666;2023-08-21T05:46:43;26.13;;;19.83;;
55216;SDS011;41086;46.736;15.666;2023-08-21T05:51:36;22.88;;;16.92;;
55216;SDS011;41086;46.736;15.666;2023-08-21T05:56:30;26.42;;;17.80;;
55216;SDS011;41086;46.736;15.666;2023-08-21T05:58:57;22.73;;;18.33;;
55216;SDS011;41086;46.736;15.666;2023-08-21T06:01:24;24.55;;;19.83;;
55216;SDS011;41086;46.736;15.666;2023-08-21T06:06:41;18.88;;;15.13;;
55216;SDS011;41086;46.736;15.666;2023-08-21T06:11:36;19.80;;;16.45;;
55216;SDS011;41086;46.736;15.666;2023-08-21T06:14:03;21.17;;;16.55;;
55216;SDS011;41086;46.736;15.666;2023-08-21T06:16:30;20.23;;;16.63;;
55216;SDS011;41086;46.736;15.666;2023-08-21T06:21:24;23.95;;;16.63;;
55216;SDS011;41086;46.736;15.666;2023-08-21T06:23:50;21.10;;;14.98;;
55216;SDS011;41086;46.736;15.666;2023-08-21T06:28:44;22.63;;;16.73;;
55216;SDS011;41086;46.736;15.666;2023-08-21T06:31:11;18.75;;;16.48;;
55216;SDS011;41086;46.736;15.666;2023-08-21T06:36:04;19.08;;;16.20;;
55216;SDS011;41086;46.736;15.666;2023-08-21T06:38:31;17.23;;;14.93;;
55216;SDS011;41086;46.736;15.666;2023-08-21T06:41:01;23.48;;;17.30;;
55216;SDS011;41086;46.736;15.666;2023-08-21T06:43:35;20.35;;;16.40;;
55216;SDS011;41086;46.736;15.666;2023-08-21T06:46:02;18.38;;;15.95;;
55216;SDS011;41086;46.736;15.666;2023-08-21T06:48:30;20.17;;;15.05;;
55216;SDS011;41086;46.736;15.666;2023-08-21T06:50:57;20.23;;;15.15;;
55216;SDS011;41086;46.736;15.666;2023-08-21T06:53:24;19.20;;;14.00;;
55216;SDS011;41086;46.736;15.666;2023-08-21T06:55:51;13.98;;;12.23;;
55216;SDS011;41086;46.736;15.666;2023-08-21T06:58:18;16.67;;;13.05;;
55216;SDS011;41086;46.736;15.666;2023-08-21T07:00:45;16.63;;;13.25;;
55216;SDS011;41086;46.736;15.666;2023-08-21T07:03:11;13.82;;;11.75;;
55216;SDS011;41086;46.736;15.666;2023-08-21T07:05:38;12.48;;;11.18;;
55216;SDS011;41086;46.736;15.666;2023-08-21T07:08:06;13.70;;;12.13;;
55216;SDS011;41086;46.736;15.666;2023-08-21T07:10:37;13.75;;;12.00;;
55216;SDS011;41086;46.736;15.666;2023-08-21T07:13:04;13.45;;;11.15;;
55216;SDS011;41086;46.736;15.666;2023-08-21T07:15:31;15.82;;;12.13;;
55216;SDS011;41086;46.736;15.666;2023-08-21T07:17:57;14.98;;;11.23;;
55216;SDS011;41086;46.736;15.666;2023-08-21T07:20:24;16.55;;;12.68;;
55216;SDS011;41086;46.736;15.666;2023-08-21T07:22:51;24.13;;;12.75;;
55216;SDS011;41086;46.736;15.666;2023-08-21T07:25:18;13.57;;;11.07;;
55216;SDS011;41086;46.736;15.666;2023-08-21T07:27:47;15.60;;;11.38;;
55216;SDS011;41086;46.736;15.666;2023-08-21T07:30:16;18.67;;;12.27;;
55216;SDS011;41086;46.736;15.666;2023-08-21T07:32:44;18.83;;;12.07;;
55216;SDS011;41086;46.736;15.666;2023-08-21T07:35:11;13.88;;;11.77;;
55216;SDS011;41086;46.736;15.666;2023-08-21T07:37:38;16.70;;;11.90;;
55216;SDS011;41086;46.736;15.666;2023-08-21T07:40:07;14.63;;;11.25;;
55216;SDS011;41086;46.736;15.666;2023-08-21T07:42:34;16.70;;;12.27;;
55216;SDS011;41086;46.736;15.666;2023-08-21T07:45:01;16.88;;;11.25;;
55216;SDS011;41086;46.736;15.666;2023-08-21T07:47:28;14.57;;;11.23;;
55216;SDS011;41086;46.736;15.666;2023-08-21T07:49:55;19.23;;;12.45;;
55216;SDS011;41086;46.736;15.666;2023-08-21T07:52:23;18.52;;;11.38;;
55216;SDS011;41086;46.736;15.666;2023-08-21T07:54:53;15.38;;;12.00;;
55216;SDS011;41086;46.736;15.666;2023-08-21T07:57:20;14.35;;;12.88;;
55216;SDS011;41086;46.736;15.666;2023-08-21T07:59:47;18.30;;;12.95;;
55216;SDS011;41086;46.736;15.666;2023-08-21T08:02:14;17.13;;;11.40;;
55216;SDS011;41086;46.736;15.666;2023-08-21T08:04:41;13.68;;;11.20;;
55216;SDS011;41086;46.736;15.666;2023-08-21T08:07:09;15.98;;;11.45;;
55216;SDS011;41086;46.736;15.666;2023-08-21T08:09:36;18.42;;;12.77;;
55216;SDS011;41086;46.736;15.666;2023-08-21T08:12:03;15.90;;;11.52;;
55216;SDS011;41086;46.736;15.666;2023-08-21T08:14:34;15.57;;;11.18;;
55216;SDS011;41086;46.736;15.666;2023-08-21T08:17:01;15.13;;;12.40;;
55216;SDS011;41086;46.736;15.666;2023-08-21T08:19:28;14.38;;;11.73;;
55216;SDS011;41086;46.736;15.666;2023-08-21T08:21:55;17.15;;;11.63;;
55216;SDS011;41086;46.736;15.666;2023-08-21T08:24:22;12.23;;;10.43;;
55216;SDS011;41086;46.736;15.666;2023-08-21T08:26:49;15.07;;;10.80;;
55216;SDS011;41086;46.736;15.666;2023-08-21T08:29:16;11.80;;;10.60;;
55216;SDS011;41086;46.736;15.666;2023-08-21T08:31:43;10.95;;;9.85;;
55216;SDS011;41086;46.736;15.666;2023-08-21T08:34:10;12.63;;;9.45;;
55216;SDS011;41086;46.736;15.666;2023-08-21T08:36:36;13.52;;;10.07;;
55216;SDS011;41086;46.736;15.666;2023-08-21T08:39:03;13.52;;;9.85;;
55216;SDS011;41086;46.736;15.666;2023-08-21T08:41:33;15.23;;;9.38;;
55216;SDS011;41086;46.736;15.666;2023-08-21T08:44:14;16.48;;;10.55;;
55216;SDS011;41086;46.736;15.666;2023-08-21T08:46:43;12.93;;;11.48;;
55216;SDS011;41086;46.736;15.666;2023-08-21T08:49:10;11.40;;;10.20;;
55216;SDS011;41086;46.736;15.666;2023-08-21T08:51:37;12.88;;;9.40;;
55216;SDS011;41086;46.736;15.666;2023-08-21T08:54:06;25.77;;;10.60;;
55216;SDS011;41086;46.736;15.666;2023-08-21T08:56:34;10.75;;;9.25;;
55216;SDS011;41086;46.736;15.666;2023-08-21T08:59:00;10.48;;;9.02;;
55216;SDS011;41086;46.736;15.666;2023-08-21T09:01:28;11.55;;;9.57;;
55216;SDS011;41086;46.736;15.666;2023-08-21T09:03:55;11.55;;;8.95;;
55216;SDS011;41086;46.736;15.666;2023-08-21T09:06:22;12.57;;;10.25;;
55216;SDS011;41086;46.736;15.666;2023-08-21T09:08:55;19.70;;;10.07;;
55216;SDS011;41086;46.736;15.666;2023-08-21T09:11:24;11.27;;;8.95;;
55216;SDS011;41086;46.736;15.666;2023-08-21T09:13:51;9.98;;;8.52;;
55216;SDS011;41086;46.736;15.666;2023-08-21T09:16:20;12.23;;;8.65;;
55216;SDS011;41086;46.736;15.666;2023-08-21T09:18:49;13.55;;;10.55;;
55216;SDS011;41086;46.736;15.666;2023-08-21T09:21:21;14.15;;;9.88;;
55216;SDS011;41086;46.736;15.666;2023-08-21T09:23:48;16.00;;;8.63;;
55216;SDS011;41086;46.736;15.666;2023-08-21T09:26:22;10.85;;;8.52;;
55216;SDS011;41086;46.736;15.666;2023-08-21T09:28:50;9.05;;;8.13;;
55216;SDS011;41086;46.736;15.666;2023-08-21T09:31:22;11.10;;;9.18;;
55216;SDS011;41086;46.736;15.666;2023-08-21T09:33:57;9.35;;;7.93;;
55216;SDS011;41086;46.736;15.666;2023-08-21T09:36:25;9.85;;;7.90;;
55216;SDS011;41086;46.736;15.666;2023-08-21T09:38:52;12.90;;;8.77;;
55216;SDS011;41086;46.736;15.666;2023-08-21T09:41:20;9.68;;;8.25;;
55216;SDS011;41086;46.736;15.666;2023-08-21T09:43:47;11.48;;;7.70;;
55216;SDS011;41086;46.736;15.666;2023-08-21T09:46:24;12.48;;;8.23;;
55216;SDS011;41086;46.736;15.666;2023-08-21T09:48:52;16.02;;;8.55;;
55216;SDS011;41086;46.736;15.666;2023-08-21T09:51:20;8.88;;;7.47;;
55216;SDS011;41086;46.736;15.666;2023-08-21T09:53:48;10.00;;;8.02;;
55216;SDS011;41086;46.736;15.666;2023-08-21T09:56:17;12.60;;;8.40;;
55216;SDS011;41086;46.736;15.666;2023-08-21T09:58:47;14.10;;;8.65;;
55216;SDS011;41086;46.736;15.666;2023-08-21T10:01:14;10.70;;;8.57;;
55216;SDS011;41086;46.736;15.666;2023-08-21T10:03:43;9.70;;;8.70;;
55216;SDS011;41086;46.736;15.666;2023-08-21T10:06:17;9.18;;;6.82;;
55216;SDS011;41086;46.736;15.666;2023-08-21T10:08:48;16.30;;;7.47;;
55216;SDS011;41086;46.736;15.666;2023-08-21T10:11:20;11.23;;;7.07;;
55216;SDS011;41086;46.736;15.666;2023-08-21T10:13:47;9.55;;;7.22;;
55216;SDS011;41086;46.736;15.666;2023-08-21T10:16:17;9.75;;;8.18;;
55216;SDS011;41086;46.736;15.666;2023-08-21T10:18:45;8.65;;;6.85;;
55216;SDS011;41086;46.736;15.666;2023-08-21T10:21:16;8.82;;;7.05;;
55216;SDS011;41086;46.736;15.666;2023-08-21T10:23:48;9.43;;;6.68;;
55216;SDS011;41086;46.736;15.666;2023-08-21T10:26:18;11.65;;;7.40;;
55216;SDS011;41086;46.736;15.666;2023-08-21T10:28:51;7.82;;;6.10;;
55216;SDS011;41086;46.736;15.666;2023-08-21T10:31:37;9.85;;;7.25;;
55216;SDS011;41086;46.736;15.666;2023-08-21T10:34:09;10.27;;;7.18;;
55216;SDS011;41086;46.736;15.666;2023-08-21T10:39:16;9.70;;;7.15;;
55216;SDS011;41086;46.736;15.666;2023-08-21T10:42:00;11.38;;;6.85;;
55216;SDS011;41086;46.736;15.666;2023-08-21T10:44:46;14.13;;;6.43;;
55216;SDS011;41086;46.736;15.666;2023-08-21T10:50:01;12.55;;;6.10;;
55216;SDS011;41086;46.736;15.666;2023-08-21T10:52:36;10.80;;;6.70;;
55216;SDS011;41086;46.736;15.666;2023-08-21T10:55:05;9.20;;;6.85;;
55216;SDS011;41086;46.736;15.666;2023-08-21T10:57:32;8.43;;;6.80;;
55216;SDS011;41086;46.736;15.666;2023-08-21T11:00:01;7.63;;;5.13;;
55216;SDS011;41086;46.736;15.666;2023-08-21T11:02:36;8.32;;;5.43;;
55216;SDS011;41086;46.736;15.666;2023-08-21T11:05:07;6.38;;;5.05;;
55216;SDS011;41086;46.736;15.666;2023-08-21T11:07:37;7.45;;;5.05;;
55216;SDS011;41086;46.736;15.666;2023-08-21T11:10:06;8.73;;;4.55;;
55216;SDS011;41086;46.736;15.666;2023-08-21T11:12:38;6.32;;;4.05;;
55216;SDS011;41086;46.736;15.666;2023-08-21T11:15:05;6.40;;;4.35;;
55216;SDS011;41086;46.736;15.666;2023-08-21T11:17:32;4.43;;;3.72;;
55216;SDS011;41086;46.736;15.666;2023-08-21T11:20:00;8.27;;;4.63;;
55216;SDS011;41086;46.736;15.666;2023-08-21T11:22:31;8.98;;;4.38;;
55216;SDS011;41086;46.736;15.666;2023-08-21T11:24:58;10.05;;;5.30;;
55216;SDS011;41086;46.736;15.666;2023-08-21T11:27:25;10.38;;;5.03;;
55216;SDS011;41086;46.736;15.666;2023-08-21T11:29:52;8.05;;;5.40;;
55216;SDS011;41086;46.736;15.666;2023-08-21T11:32:20;7.07;;;5.00;;
55216;SDS011;41086;46.736;15.666;2023-08-21T11:34:54;7.95;;;5.10;;
55216;SDS011;41086;46.736;15.666;2023-08-21T11:37:22;5.50;;;4.53;;
55216;SDS011;41086;46.736;15.666;2023-08-21T11:39:55;7.80;;;5.20;;
55216;SDS011;41086;46.736;15.666;2023-08-21T11:42:32;8.57;;;6.00;;
55216;SDS011;41086;46.736;15.666;2023-08-21T11:45:00;8.57;;;5.10;;
55216;SDS011;41086;46.736;15.666;2023-08-21T11:47:31;7.72;;;5.25;;
55216;SDS011;41086;46.736;15.666;2023-08-21T11:50:07;5.40;;;4.78;;
55216;SDS011;41086;46.736;15.666;2023-08-21T11:52:36;10.88;;;5.03;;
55216;SDS011;41086;46.736;15.666;2023-08-21T11:55:08;5.43;;;4.72;;
55216;SDS011;41086;46.736;15.666;2023-08-21T11:57:47;11.68;;;5.25;;
55216;SDS011;41086;46.736;15.666;2023-08-21T12:00:19;7.10;;;4.55;;
55216;SDS011;41086;46.736;15.666;2023-08-21T12:02:58;5.90;;;4.80;;
55216;SDS011;41086;46.736;15.666;2023-08-21T12:05:35;7.05;;;4.10;;
55216;SDS011;41086;46.736;15.666;2023-08-21T12:08:21;6.32;;;4.85;;
55216;SDS011;41086;46.736;15.666;2023-08-21T12:10:53;8.07;;;5.78;;
55216;SDS011;41086;46.736;15.666;2023-08-21T12:13:20;7.70;;;4.93;;
55216;SDS011;41086;46.736;15.666;2023-08-21T12:15:46;5.65;;;4.97;;
55216;SDS011;41086;46.736;15.666;2023-08-21T12:18:13;7.15;;;5.32;;
55216;SDS011;41086;46.736;15.666;2023-08-21T12:20:40;8.35;;;5.50;;
55216;SDS011;41086;46.736;15.666;2023-08-21T12:23:07;13.07;;;5.63;;
55216;SDS011;41086;46.736;15.666;2023-08-21T12:25:34;11.40;;;4.95;;
55216;SDS011;41086;46.736;15.666;2023-08-21T12:28:00;5.72;;;4.68;;
55216;SDS011;41086;46.736;15.666;2023-08-21T12:30:35;9.02;;;5.65;;
55216;SDS011;41086;46.736;15.666;2023-08-21T12:33:02;9.50;;;4.90;;
55216;SDS011;41086;46.736;15.666;2023-08-21T12:35:47;9.55;;;5.50;;
55216;SDS011;41086;46.736;15.666;2023-08-21T12:38:14;5.40;;;4.75;;
55216;SDS011;41086;46.736;15.666;2023-08-21T12:40:41;6.75;;;5.22;;
55216;SDS011;41086;46.736;15.666;2023-08-21T12:43:08;7.55;;;5.55;;
55216;SDS011;41086;46.736;15.666;2023-08-21T12:45:35;7.40;;;4.95;;
55216;SDS011;41086;46.736;15.666;2023-08-21T12:48:03;5.70;;;4.93;;
55216;SDS011;41086;46.736;15.666;2023-08-21T12:50:31;6.40;;;5.07;;
55216;SDS011;41086;46.736;15.666;2023-08-21T12:52:58;6.75;;;4.88;;
55216;SDS011;41086;46.736;15.666;2023-08-21T12:55:24;6.07;;;4.70;;
55216;SDS011;41086;46.736;15.666;2023-08-21T12:57:51;7.45;;;5.30;;
55216;SDS011;41086;46.736;15.666;2023-08-21T13:00:18;9.50;;;5.70;;
55216;SDS011;41086;46.736;15.666;2023-08-21T13:02:45;5.50;;;5.00;;
55216;SDS011;41086;46.736;15.666;2023-08-21T13:05:13;6.13;;;5.22;;
55216;SDS011;41086;46.736;15.666;2023-08-21T13:07:41;8.73;;;5.35;;
55216;SDS011;41086;46.736;15.666;2023-08-21T13:10:08;6.13;;;4.93;;
55216;SDS011;41086;46.736;15.666;2023-08-21T13:12:36;5.88;;;5.15;;
55216;SDS011;41086;46.736;15.666;2023-08-21T13:15:04;5.90;;;5.07;;
55216;SDS011;41086;46.736;15.666;2023-08-21T13:17:34;6.38;;;5.32;;
55216;SDS011;41086;46.736;15.666;2023-08-21T13:20:04;8.40;;;4.70;;
55216;SDS011;41086;46.736;15.666;2023-08-21T13:22:47;8.60;;;4.90;;
55216;SDS011;41086;46.736;15.666;2023-08-21T13:25:15;6.00;;;5.40;;
55216;SDS011;41086;46.736;15.666;2023-08-21T13:27:44;8.30;;;5.72;;
55216;SDS011;41086;46.736;15.666;2023-08-21T13:30:11;5.85;;;5.03;;
55216;SDS011;41086;46.736;15.666;2023-08-21T13:32:39;5.68;;;5.10;;
55216;SDS011;41086;46.736;15.666;2023-08-21T13:35:06;11.02;;;5.68;;
55216;SDS011;41086;46.736;15.666;2023-08-21T13:37:35;5.70;;;4.70;;
55216;SDS011;41086;46.736;15.666;2023-08-21T13:40:03;6.97;;;4.88;;
55216;SDS011;41086;46.736;15.666;2023-08-21T13:45:15;6.43;;;4.60;;
55216;SDS011;41086;46.736;15.666;2023-08-21T13:47:45;7.13;;;5.40;;
55216;SDS011;41086;46.736;15.666;2023-08-21T13:50:15;6.80;;;5.65;;
55216;SDS011;41086;46.736;15.666;2023-08-21T13:52:43;7.57;;;5.47;;
55216;SDS011;41086;46.736;15.666;2023-08-21T13:55:10;5.95;;;4.80;;
55216;SDS011;41086;46.736;15.666;2023-08-21T13:57:37;6.80;;;5.45;;
55216;SDS011;41086;46.736;15.666;2023-08-21T14:00:05;7.65;;;5.60;;
55216;SDS011;41086;46.736;15.666;2023-08-21T14:02:34;8.43;;;5.22;;
55216;SDS011;41086;46.736;15.666;2023-08-21T14:05:01;8.23;;;5.47;;
55216;SDS011;41086;46.736;15.666;2023-08-21T14:07:31;9.25;;;5.18;;
55216;SDS011;41086;46.736;15.666;2023-08-21T14:09:59;10.25;;;5.78;;
55216;SDS011;41086;46.736;15.666;2023-08-21T14:12:28;6.28;;;5.68;;
55216;SDS011;41086;46.736;15.666;2023-08-21T14:14:57;8.20;;;5.65;;
55216;SDS011;41086;46.736;15.666;2023-08-21T14:17:25;6.60;;;5.45;;
55216;SDS011;41086;46.736;15.666;2023-08-21T14:19:52;7.90;;;5.38;;
55216;SDS011;41086;46.736;15.666;2023-08-21T14:22:19;6.57;;;5.35;;
55216;SDS011;41086;46.736;15.666;2023-08-21T14:24:46;10.70;;;5.95;;
55216;SDS011;41086;46.736;15.666;2023-08-21T14:27:13;11.07;;;5.85;;
55216;SDS011;41086;46.736;15.666;2023-08-21T14:29:41;13.80;;;9.40;;
55216;SDS011;41086;46.736;15.666;2023-08-21T14:32:09;7.88;;;5.65;;
55216;SDS011;41086;46.736;15.666;2023-08-21T14:34:36;8.93;;;5.22;;
55216;SDS011;41086;46.736;15.666;2023-08-21T14:37:03;8.35;;;5.53;;
55216;SDS011;41086;46.736;15.666;2023-08-21T14:39:30;7.03;;;5.32;;
55216;SDS011;41086;46.736;15.666;2023-08-21T14:41:57;8.77;;;4.97;;
55216;SDS011;41086;46.736;15.666;2023-08-21T14:44:25;7.07;;;5.60;;
55216;SDS011;41086;46.736;15.666;2023-08-21T14:46:52;6.65;;;5.65;;
55216;SDS011;41086;46.736;15.666;2023-08-21T14:49:23;7.03;;;5.40;;
55216;SDS011;41086;46.736;15.666;2023-08-21T14:51:51;7.82;;;5.18;;
55216;SDS011;41086;46.736;15.666;2023-08-21T14:54:18;5.85;;;5.28;;
55216;SDS011;41086;46.736;15.666;2023-08-21T14:56:45;10.98;;;5.68;;
55216;SDS011;41086;46.736;15.666;2023-08-21T14:59:12;6.85;;;5.28;;
55216;SDS011;41086;46.736;15.666;2023-08-21T15:01:40;7.68;;;5.78;;
55216;SDS011;41086;46.736;15.666;2023-08-21T15:04:08;6.05;;;5.30;;
55216;SDS011;41086;46.736;15.666;2023-08-21T15:06:37;5.60;;;4.70;;
55216;SDS011;41086;46.736;15.666;2023-08-21T15:09:04;7.32;;;5.32;;
55216;SDS011;41086;46.736;15.666;2023-08-21T15:11:32;9.07;;;5.30;;
55216;SDS011;41086;46.736;15.666;2023-08-21T15:14:00;6.80;;;5.25;;
55216;SDS011;41086;46.736;15.666;2023-08-21T15:16:29;6.07;;;4.78;;
55216;SDS011;41086;46.736;15.666;2023-08-21T15:18:56;5.25;;;4.72;;
55216;SDS011;41086;46.736;15.666;2023-08-21T15:21:24;6.05;;;5.30;;
55216;SDS011;41086;46.736;15.666;2023-08-21T15:23:51;7.53;;;5.28;;
55216;SDS011;41086;46.736;15.666;2023-08-21T15:26:18;6.40;;;5.55;;
55216;SDS011;41086;46.736;15.666;2023-08-21T15:28:46;13.60;;;4.93;;
55216;SDS011;41086;46.736;15.666;2023-08-21T15:31:15;8.20;;;5.13;;
55216;SDS011;41086;46.736;15.666;2023-08-21T15:33:42;6.43;;;5.15;;
55216;SDS011;41086;46.736;15.666;2023-08-21T15:36:09;10.48;;;5.70;;
55216;SDS011;41086;46.736;15.666;2023-08-21T15:38:36;5.68;;;5.10;;